Terminal Aerodrome Forecast
Issued by NWS Chicago, IL

Home | Current Version | Previous Version | Graphics & Text | Print | Product List | Glossary On
Versions: 1 2 3 4 5 6 7 8 9 10 11 12 13 14 15 16 17 18 19 20 21 22 23 24 25 26 27 28
876
FTUS43 KLOT 220900 AAA
TAFRFD
TAF AMD
KRFD 220900Z 2209/2306 05010KT P6SM SCT025 OVC200
     FM221800 09013KT P6SM SCT015 BKN025
     FM230300 12008KT P6SM VCSH SCT010 OVC018=

USA.gov is the U.S. government's official web portal to all federal, state and local government web resources and services.